sensor_id;sensor_type;location;lat;lon;timestamp;pressure;altitude;pressure_sealevel;temperature;humidity
38267;BME280;24063;51.794;19.578;2022-12-29T13:20:57;97886.25;;;7.46;72.03
38267;BME280;24063;51.794;19.578;2022-12-29T13:37:17;97896.58;;;8.72;66.64
38267;BME280;24063;51.794;19.578;2022-12-29T13:38:34;97895.27;;;8.36;68.16
38267;BME280;24063;51.794;19.578;2022-12-29T13:39:37;97897.27;;;8.04;69.31
38267;BME280;24063;51.794;19.578;2022-12-29T13:40:45;97902.98;;;7.87;70.06
38267;BME280;24063;51.794;19.578;2022-12-29T13:41:52;97903.92;;;7.71;71.17
38267;BME280;24063;51.794;19.578;2022-12-29T13:42:56;97901.91;;;7.61;71.76
38267;BME280;24063;51.794;19.578;2022-12-29T13:44:02;97900.64;;;7.55;72.80
38267;BME280;24063;51.794;19.578;2022-12-29T13:45:13;97900.68;;;7.59;73.05
38267;BME280;24063;51.794;19.578;2022-12-29T13:46:31;97898.64;;;7.60;73.01
38267;BME280;24063;51.794;19.578;2022-12-29T13:48:53;97899.70;;;7.66;72.51
38267;BME280;24063;51.794;19.578;2022-12-29T13:49:59;97897.65;;;7.67;73.02
38267;BME280;24063;51.794;19.578;2022-12-29T13:51:05;97897.48;;;7.70;73.16
38267;BME280;24063;51.794;19.578;2022-12-29T13:55:03;97886.78;;;7.84;72.51
38267;BME280;24063;51.794;19.578;2022-12-29T13:58:58;97890.70;;;7.76;72.22
38267;BME280;24063;51.794;19.578;2022-12-29T14:00:21;97891.88;;;7.72;72.48
38267;BME280;24063;51.794;19.578;2022-12-29T14:02:41;97898.29;;;7.69;72.72
38267;BME280;24063;51.794;19.578;2022-12-29T14:04:32;97899.69;;;7.65;73.09
38267;BME280;24063;51.794;19.578;2022-12-29T14:05:36;97903.02;;;7.63;72.94
38267;BME280;24063;51.794;19.578;2022-12-29T14:06:38;97905.45;;;7.63;73.23
38267;BME280;24063;51.794;19.578;2022-12-29T14:07:42;97905.04;;;7.62;73.28
38267;BME280;24063;51.794;19.578;2022-12-29T14:08:44;97905.23;;;7.62;73.31
38267;BME280;24063;51.794;19.578;2022-12-29T14:09:52;97908.75;;;7.61;73.38
38267;BME280;24063;51.794;19.578;2022-12-29T14:10:54;97910.25;;;7.61;73.56
38267;BME280;24063;51.794;19.578;2022-12-29T14:11:58;97908.75;;;7.60;73.54
38267;BME280;24063;51.794;19.578;2022-12-29T14:14:20;97912.69;;;7.60;73.50
38267;BME280;24063;51.794;19.578;2022-12-29T14:15:25;97914.08;;;7.61;73.49
38267;BME280;24063;51.794;19.578;2022-12-29T14:16:33;97915.69;;;7.61;73.56
38267;BME280;24063;51.794;19.578;2022-12-29T14:17:38;97915.41;;;7.61;73.49
38267;BME280;24063;51.794;19.578;2022-12-29T14:18:44;97910.89;;;7.61;73.44
38267;BME280;24063;51.794;19.578;2022-12-29T14:19:52;97915.90;;;7.61;73.66
38267;BME280;24063;51.794;19.578;2022-12-29T14:22:10;97915.79;;;7.61;73.70
38267;BME280;24063;51.794;19.578;2022-12-29T14:25:57;97916.11;;;7.61;73.70
38267;BME280;24063;51.794;19.578;2022-12-29T14:27:00;97914.93;;;7.61;73.77
38267;BME280;24063;51.794;19.578;2022-12-29T14:28:16;97917.14;;;7.61;73.69
38267;BME280;24063;51.794;19.578;2022-12-29T14:30:50;97912.84;;;7.58;73.82
38267;BME280;24063;51.794;19.578;2022-12-29T14:31:52;97910.20;;;7.57;74.00
38267;BME280;24063;51.794;19.578;2022-12-29T14:33:03;97910.37;;;7.56;74.07
38267;BME280;24063;51.794;19.578;2022-12-29T14:35:45;97918.06;;;7.53;74.11
38267;BME280;24063;51.794;19.578;2022-12-29T14:37:02;97916.63;;;7.50;74.30
38267;BME280;24063;51.794;19.578;2022-12-29T14:38:20;97915.38;;;7.49;74.32
38267;BME280;24063;51.794;19.578;2022-12-29T14:39:42;97911.77;;;7.47;74.49
38267;BME280;24063;51.794;19.578;2022-12-29T14:40:46;97914.14;;;7.46;74.48
38267;BME280;24063;51.794;19.578;2022-12-29T14:42:20;97919.37;;;7.47;74.54
38267;BME280;24063;51.794;19.578;2022-12-29T14:43:26;97918.45;;;7.47;74.66
38267;BME280;24063;51.794;19.578;2022-12-29T14:44:29;97914.58;;;7.46;74.66
38267;BME280;24063;51.794;19.578;2022-12-29T14:45:31;97915.60;;;7.46;74.63
38267;BME280;24063;51.794;19.578;2022-12-29T14:47:56;97920.98;;;7.45;74.71
38267;BME280;24063;51.794;19.578;2022-12-29T14:48:59;97917.71;;;7.45;74.78
38267;BME280;24063;51.794;19.578;2022-12-29T14:50:16;97918.09;;;7.45;75.00
38267;BME280;24063;51.794;19.578;2022-12-29T14:51:29;97918.99;;;7.44;75.00
38267;BME280;24063;51.794;19.578;2022-12-29T14:52:55;97916.96;;;7.42;75.22
38267;BME280;24063;51.794;19.578;2022-12-29T14:55:46;97922.77;;;7.39;75.33
38267;BME280;24063;51.794;19.578;2022-12-29T14:56:48;97925.02;;;7.37;75.41
38267;BME280;24063;51.794;19.578;2022-12-29T14:58:01;97928.95;;;7.36;75.51
38267;BME280;24063;51.794;19.578;2022-12-29T14:59:10;97927.45;;;7.35;75.67
38267;BME280;24063;51.794;19.578;2022-12-29T15:00:46;97927.66;;;7.35;75.69
38267;BME280;24063;51.794;19.578;2022-12-29T15:01:49;97930.94;;;7.35;75.81
38267;BME280;24063;51.794;19.578;2022-12-29T15:04:30;97932.89;;;7.34;75.88
38267;BME280;24063;51.794;19.578;2022-12-29T15:05:52;97928.73;;;7.33;75.94
38267;BME280;24063;51.794;19.578;2022-12-29T15:06:55;97935.30;;;7.34;75.99
38267;BME280;24063;51.794;19.578;2022-12-29T15:07:59;97932.88;;;7.33;76.14
38267;BME280;24063;51.794;19.578;2022-12-29T15:09:19;97933.64;;;7.33;76.08
38267;BME280;24063;51.794;19.578;2022-12-29T15:10:34;97932.34;;;7.33;76.26
38267;BME280;24063;51.794;19.578;2022-12-29T15:12:54;97930.61;;;7.31;76.31
38267;BME280;24063;51.794;19.578;2022-12-29T15:13:56;97931.11;;;7.31;76.48
38267;BME280;24063;51.794;19.578;2022-12-29T15:15:00;97927.98;;;7.31;76.48
38267;BME280;24063;51.794;19.578;2022-12-29T15:16:03;97927.67;;;7.31;76.54
38267;BME280;24063;51.794;19.578;2022-12-29T15:17:22;97924.44;;;7.31;76.60
38267;BME280;24063;51.794;19.578;2022-12-29T15:18:29;97925.19;;;7.32;76.58
38267;BME280;24063;51.794;19.578;2022-12-29T15:19:31;97920.83;;;7.31;76.50
38267;BME280;24063;51.794;19.578;2022-12-29T15:20:33;97927.88;;;7.32;76.58
38267;BME280;24063;51.794;19.578;2022-12-29T15:21:36;97926.43;;;7.32;76.63
38267;BME280;24063;51.794;19.578;2022-12-29T15:22:43;97923.37;;;7.32;76.57
38267;BME280;24063;51.794;19.578;2022-12-29T15:23:46;97925.89;;;7.32;76.69
38267;BME280;24063;51.794;19.578;2022-12-29T15:24:50;97926.00;;;7.31;76.56
38267;BME280;24063;51.794;19.578;2022-12-29T15:25:59;97922.40;;;7.31;76.45
38267;BME280;24063;51.794;19.578;2022-12-29T15:27:03;97927.13;;;7.30;76.66
38267;BME280;24063;51.794;19.578;2022-12-29T15:28:11;97931.80;;;7.30;76.72
38267;BME280;24063;51.794;19.578;2022-12-29T15:30:33;97928.20;;;7.28;76.80
38267;BME280;24063;51.794;19.578;2022-12-29T15:31:46;97922.61;;;7.26;76.89
38267;BME280;24063;51.794;19.578;2022-12-29T15:32:50;97931.33;;;7.26;77.00
38267;BME280;24063;51.794;19.578;2022-12-29T15:34:02;97927.52;;;7.25;76.92
38267;BME280;24063;51.794;19.578;2022-12-29T15:35:25;97928.16;;;7.24;77.11
38267;BME280;24063;51.794;19.578;2022-12-29T15:36:29;97923.23;;;7.24;77.14
38267;BME280;24063;51.794;19.578;2022-12-29T15:37:38;97924.33;;;7.23;77.03
38267;BME280;24063;51.794;19.578;2022-12-29T15:38:40;97922.95;;;7.23;77.16
38267;BME280;24063;51.794;19.578;2022-12-29T15:39:41;97923.53;;;7.23;77.22
38267;BME280;24063;51.794;19.578;2022-12-29T15:40:45;97920.58;;;7.23;77.24
38267;BME280;24063;51.794;19.578;2022-12-29T15:41:55;97921.01;;;7.22;77.12
38267;BME280;24063;51.794;19.578;2022-12-29T15:44:46;97917.19;;;7.22;77.26
38267;BME280;24063;51.794;19.578;2022-12-29T15:45:54;97914.94;;;7.20;77.38
38267;BME280;24063;51.794;19.578;2022-12-29T15:46:57;97916.27;;;7.19;77.32
38267;BME280;24063;51.794;19.578;2022-12-29T15:48:00;97919.45;;;7.20;77.32
38267;BME280;24063;51.794;19.578;2022-12-29T15:49:06;97920.95;;;7.19;77.31
38267;BME280;24063;51.794;19.578;2022-12-29T15:51:37;97921.98;;;7.21;77.24
38267;BME280;24063;51.794;19.578;2022-12-29T15:52:40;97923.53;;;7.20;77.48
38267;BME280;24063;51.794;19.578;2022-12-29T15:53:47;97920.73;;;7.19;77.45
38267;BME280;24063;51.794;19.578;2022-12-29T15:54:51;97923.53;;;7.18;77.41
38267;BME280;24063;51.794;19.578;2022-12-29T15:56:02;97922.79;;;7.19;77.39
38267;BME280;24063;51.794;19.578;2022-12-29T15:57:23;97924.02;;;7.19;77.36
38267;BME280;24063;51.794;19.578;2022-12-29T15:58:28;97917.25;;;7.20;77.30
38267;BME280;24063;51.794;19.578;2022-12-29T15:59:32;97918.80;;;7.21;77.48
38267;BME280;24063;51.794;19.578;2022-12-29T16:00:35;97921.34;;;7.21;77.21
38267;BME280;24063;51.794;19.578;2022-12-29T16:01:42;97920.75;;;7.20;77.46
38267;BME280;24063;51.794;19.578;2022-12-29T16:02:44;97928.75;;;7.21;77.35
38267;BME280;24063;51.794;19.578;2022-12-29T16:03:47;97928.27;;;7.22;77.26
38267;BME280;24063;51.794;19.578;2022-12-29T16:04:51;97929.82;;;7.22;77.05
38267;BME280;24063;51.794;19.578;2022-12-29T16:06:30;97933.27;;;7.22;77.00
38267;BME280;24063;51.794;19.578;2022-12-29T16:07:32;97931.00;;;7.23;77.02
38267;BME280;24063;51.794;19.578;2022-12-29T16:08:42;97924.88;;;7.22;76.94
38267;BME280;24063;51.794;19.578;2022-12-29T16:09:44;97930.89;;;7.21;76.87
38267;BME280;24063;51.794;19.578;2022-12-29T16:10:47;97928.74;;;7.21;76.86
38267;BME280;24063;51.794;19.578;2022-12-29T16:12:13;97929.12;;;7.21;76.97
38267;BME280;24063;51.794;19.578;2022-12-29T16:14:47;97934.29;;;7.20;76.92
38267;BME280;24063;51.794;19.578;2022-12-29T16:16:18;97930.41;;;7.18;76.80
38267;BME280;24063;51.794;19.578;2022-12-29T16:17:28;97927.83;;;7.18;76.95
38267;BME280;24063;51.794;19.578;2022-12-29T16:18:35;97932.84;;;7.16;76.95
38267;BME280;24063;51.794;19.578;2022-12-29T16:19:40;97929.94;;;7.15;77.00
38267;BME280;24063;51.794;19.578;2022-12-29T16:20:43;97936.44;;;7.14;76.77
38267;BME280;24063;51.794;19.578;2022-12-29T16:21:46;97937.56;;;7.14;76.84
38267;BME280;24063;51.794;19.578;2022-12-29T16:22:57;97936.77;;;7.15;76.73
38267;BME280;24063;51.794;19.578;2022-12-29T16:24:05;97937.73;;;7.15;76.77
38267;BME280;24063;51.794;19.578;2022-12-29T16:25:45;97932.89;;;7.16;76.71
38267;BME280;24063;51.794;19.578;2022-12-29T16:26:49;97932.08;;;7.14;76.81
38267;BME280;24063;51.794;19.578;2022-12-29T16:27:52;97933.91;;;7.14;76.71
38267;BME280;24063;51.794;19.578;2022-12-29T16:28:58;97937.52;;;7.14;76.75
38267;BME280;24063;51.794;19.578;2022-12-29T16:30:06;97933.80;;;7.12;76.71
38267;BME280;24063;51.794;19.578;2022-12-29T16:32:25;97941.05;;;7.11;76.60
38267;BME280;24063;51.794;19.578;2022-12-29T16:33:38;97940.73;;;7.11;76.69
38267;BME280;24063;51.794;19.578;2022-12-29T16:34:42;97945.52;;;7.10;76.80
38267;BME280;24063;51.794;19.578;2022-12-29T16:35:46;97944.13;;;7.10;76.71
38267;BME280;24063;51.794;19.578;2022-12-29T16:36:57;97944.98;;;7.10;76.71
38267;BME280;24063;51.794;19.578;2022-12-29T16:38:20;97944.98;;;7.09;76.75
38267;BME280;24063;51.794;19.578;2022-12-29T16:39:27;97940.73;;;7.09;76.62
38267;BME280;24063;51.794;19.578;2022-12-29T16:40:30;97937.52;;;7.08;76.62
38267;BME280;24063;51.794;19.578;2022-12-29T16:41:32;97943.05;;;7.09;76.78
38267;BME280;24063;51.794;19.578;2022-12-29T16:42:45;97945.89;;;7.08;76.72
38267;BME280;24063;51.794;19.578;2022-12-29T16:44:11;97944.55;;;7.07;76.67
38267;BME280;24063;51.794;19.578;2022-12-29T16:46:29;97947.09;;;7.06;76.62
38267;BME280;24063;51.794;19.578;2022-12-29T16:47:32;97947.62;;;7.07;76.48
38267;BME280;24063;51.794;19.578;2022-12-29T16:48:49;97946.88;;;7.06;76.65
38267;BME280;24063;51.794;19.578;2022-12-29T16:49:53;97945.80;;;7.06;76.53
38267;BME280;24063;51.794;19.578;2022-12-29T16:51:06;97950.19;;;7.06;76.40
38267;BME280;24063;51.794;19.578;2022-12-29T16:52:20;97947.93;;;7.06;76.40
38267;BME280;24063;51.794;19.578;2022-12-29T16:53:36;97950.67;;;7.06;76.43
38267;BME280;24063;51.794;19.578;2022-12-29T16:54:39;97948.84;;;7.07;76.39
38267;BME280;24063;51.794;19.578;2022-12-29T16:55:49;97952.61;;;7.06;76.64
38267;BME280;24063;51.794;19.578;2022-12-29T16:56:53;97953.05;;;7.06;76.63
38267;BME280;24063;51.794;19.578;2022-12-29T16:57:58;97957.61;;;7.05;76.63
38267;BME280;24063;51.794;19.578;2022-12-29T17:00:25;97962.50;;;7.06;76.57
38267;BME280;24063;51.794;19.578;2022-12-29T17:01:28;97960.41;;;7.06;76.58
38267;BME280;24063;51.794;19.578;2022-12-29T17:02:32;97960.95;;;7.06;76.62
38267;BME280;24063;51.794;19.578;2022-12-29T17:03:42;97962.49;;;7.06;76.51
38267;BME280;24063;51.794;19.578;2022-12-29T17:04:45;97962.34;;;7.06;76.47
38267;BME280;24063;51.794;19.578;2022-12-29T17:05:50;97962.34;;;7.06;76.56
38267;BME280;24063;51.794;19.578;2022-12-29T17:06:58;97957.34;;;7.06;76.59
38267;BME280;24063;51.794;19.578;2022-12-29T17:08:00;97958.73;;;7.06;76.75
38267;BME280;24063;51.794;19.578;2022-12-29T17:09:26;97952.08;;;7.05;76.67
38267;BME280;24063;51.794;19.578;2022-12-29T17:10:29;97958.52;;;7.05;76.81
38267;BME280;24063;51.794;19.578;2022-12-29T17:11:54;97957.06;;;7.04;76.75
38267;BME280;24063;51.794;19.578;2022-12-29T17:13:09;97951.75;;;7.04;76.73
38267;BME280;24063;51.794;19.578;2022-12-29T17:15:40;97955.67;;;7.03;76.69
38267;BME280;24063;51.794;19.578;2022-12-29T17:16:42;97949.06;;;7.04;76.59
38267;BME280;24063;51.794;19.578;2022-12-29T17:17:46;97951.96;;;7.04;76.64
38267;BME280;24063;51.794;19.578;2022-12-29T17:18:49;97950.45;;;7.03;76.79
38267;BME280;24063;51.794;19.578;2022-12-29T17:19:55;97951.21;;;7.02;76.87
38267;BME280;24063;51.794;19.578;2022-12-29T17:21:00;97953.80;;;7.02;76.81
38267;BME280;24063;51.794;19.578;2022-12-29T17:22:03;97955.45;;;7.00;76.82
38267;BME280;24063;51.794;19.578;2022-12-29T17:23:15;97949.17;;;6.98;76.93
38267;BME280;24063;51.794;19.578;2022-12-29T17:24:30;97952.39;;;6.96;76.95
38267;BME280;24063;51.794;19.578;2022-12-29T17:25:35;97949.80;;;6.95;77.04
38267;BME280;24063;51.794;19.578;2022-12-29T17:26:38;97951.59;;;6.93;77.15
38267;BME280;24063;51.794;19.578;2022-12-29T17:27:53;97951.90;;;6.93;77.14
38267;BME280;24063;51.794;19.578;2022-12-29T17:28:57;97947.50;;;6.94;77.15
38267;BME280;24063;51.794;19.578;2022-12-29T17:30:09;97951.05;;;6.94;77.10
38267;BME280;24063;51.794;19.578;2022-12-29T17:31:13;97954.15;;;6.93;77.14
38267;BME280;24063;51.794;19.578;2022-12-29T17:32:15;97955.23;;;6.93;77.21
38267;BME280;24063;51.794;19.578;2022-12-29T17:33:19;97956.09;;;6.93;77.07
38267;BME280;24063;51.794;19.578;2022-12-29T17:34:22;97956.84;;;6.92;77.23
38267;BME280;24063;51.794;19.578;2022-12-29T17:35:25;97958.40;;;6.91;77.29
38267;BME280;24063;51.794;19.578;2022-12-29T17:36:28;97956.52;;;6.91;77.25
38267;BME280;24063;51.794;19.578;2022-12-29T17:37:37;97956.37;;;6.91;77.42
38267;BME280;24063;51.794;19.578;2022-12-29T17:38:39;97957.33;;;6.91;77.29
38267;BME280;24063;51.794;19.578;2022-12-29T17:39:41;97955.08;;;6.90;77.11
38267;BME280;24063;51.794;19.578;2022-12-29T17:40:44;97957.88;;;6.90;77.14
38267;BME280;24063;51.794;19.578;2022-12-29T17:41:46;97959.15;;;6.91;77.36
38267;BME280;24063;51.794;19.578;2022-12-29T17:42:52;97959.16;;;6.91;77.26
38267;BME280;24063;51.794;19.578;2022-12-29T17:44:01;97957.55;;;6.92;77.31
38267;BME280;24063;51.794;19.578;2022-12-29T17:45:03;97959.25;;;6.92;77.38
38267;BME280;24063;51.794;19.578;2022-12-29T17:46:06;97962.54;;;6.91;77.33
38267;BME280;24063;51.794;19.578;2022-12-29T17:47:12;97962.10;;;6.92;77.21
38267;BME280;24063;51.794;19.578;2022-12-29T17:48:17;97960.23;;;6.91;77.19
38267;BME280;24063;51.794;19.578;2022-12-29T17:49:20;97956.59;;;6.91;77.33
38267;BME280;24063;51.794;19.578;2022-12-29T17:50:26;97960.55;;;6.90;77.34
38267;BME280;24063;51.794;19.578;2022-12-29T17:51:30;97959.27;;;6.91;77.40
38267;BME280;24063;51.794;19.578;2022-12-29T17:52:33;97959.65;;;6.90;77.20
38267;BME280;24063;51.794;19.578;2022-12-29T17:53:35;97960.98;;;6.90;77.36
38267;BME280;24063;51.794;19.578;2022-12-29T17:54:44;97959.65;;;6.90;77.30
38267;BME280;24063;51.794;19.578;2022-12-29T17:55:47;97957.65;;;6.89;77.32
38267;BME280;24063;51.794;19.578;2022-12-29T17:56:49;97956.73;;;6.89;77.28
38267;BME280;24063;51.794;19.578;2022-12-29T17:57:51;97958.78;;;6.90;77.56
38267;BME280;24063;51.794;19.578;2022-12-29T17:58:55;97963.52;;;6.89;77.61
38267;BME280;24063;51.794;19.578;2022-12-29T17:59:57;97960.98;;;6.90;77.49
38267;BME280;24063;51.794;19.578;2022-12-29T18:01:01;97957.34;;;6.90;77.51
38267;BME280;24063;51.794;19.578;2022-12-29T18:02:24;97959.75;;;6.91;77.37
38267;BME280;24063;51.794;19.578;2022-12-29T18:03:32;97959.32;;;6.92;77.46
38267;BME280;24063;51.794;19.578;2022-12-29T18:04:36;97959.86;;;6.92;77.49
38267;BME280;24063;51.794;19.578;2022-12-29T18:05:37;97957.86;;;6.92;77.52
38267;BME280;24063;51.794;19.578;2022-12-29T18:06:41;97966.25;;;6.93;77.44
38267;BME280;24063;51.794;19.578;2022-12-29T18:07:43;97963.13;;;6.93;77.33
38267;BME280;24063;51.794;19.578;2022-12-29T18:08:46;97959.05;;;6.93;77.21
38267;BME280;24063;51.794;19.578;2022-12-29T18:09:48;97966.48;;;6.94;77.22
38267;BME280;24063;51.794;19.578;2022-12-29T18:10:52;97966.20;;;6.94;77.10
38267;BME280;24063;51.794;19.578;2022-12-29T18:11:55;97961.80;;;6.94;77.06
38267;BME280;24063;51.794;19.578;2022-12-29T18:12:59;97958.03;;;6.94;77.18
38267;BME280;24063;51.794;19.578;2022-12-29T18:14:01;97960.02;;;6.94;77.11
38267;BME280;24063;51.794;19.578;2022-12-29T18:15:04;97961.75;;;6.95;77.08
38267;BME280;24063;51.794;19.578;2022-12-29T18:16:06;97959.43;;;6.95;77.11
38267;BME280;24063;51.794;19.578;2022-12-29T18:17:11;97953.45;;;6.94;77.06
38267;BME280;24063;51.794;19.578;2022-12-29T18:18:15;97962.39;;;6.94;77.20
38267;BME280;24063;51.794;19.578;2022-12-29T18:19:19;97958.20;;;6.94;77.17
38267;BME280;24063;51.794;19.578;2022-12-29T18:20:20;97961.84;;;6.93;77.25
38267;BME280;24063;51.794;19.578;2022-12-29T18:21:23;97965.29;;;6.93;77.49
38267;BME280;24063;51.794;19.578;2022-12-29T18:22:25;97962.48;;;6.92;77.39
38267;BME280;24063;51.794;19.578;2022-12-29T18:23:32;97961.45;;;6.91;77.46
38267;BME280;24063;51.794;19.578;2022-12-29T18:24:35;97962.65;;;6.92;77.28
38267;BME280;24063;51.794;19.578;2022-12-29T18:26:52;97955.55;;;6.93;77.35
38267;BME280;24063;51.794;19.578;2022-12-29T18:27:53;97952.65;;;6.93;77.36
38267;BME280;24063;51.794;19.578;2022-12-29T18:28:56;97949.96;;;6.92;77.33
38267;BME280;24063;51.794;19.578;2022-12-29T18:29:59;97952.83;;;6.95;77.20
38267;BME280;24063;51.794;19.578;2022-12-29T18:31:01;97952.13;;;6.96;77.30
38267;BME280;24063;51.794;19.578;2022-12-29T18:32:03;97952.77;;;6.96;77.14
38267;BME280;24063;51.794;19.578;2022-12-29T18:33:05;97954.48;;;6.96;77.25
38267;BME280;24063;51.794;19.578;2022-12-29T18:34:13;97954.16;;;6.96;77.15
38267;BME280;24063;51.794;19.578;2022-12-29T18:35:55;97950.62;;;6.96;77.10
38267;BME280;24063;51.794;19.578;2022-12-29T18:36:48;97947.30;;;6.94;77.14
38267;BME280;24063;51.794;19.578;2022-12-29T18:37:50;97949.11;;;6.93;77.14
38267;BME280;24063;51.794;19.578;2022-12-29T18:38:52;97949.00;;;6.93;77.08
38267;BME280;24063;51.794;19.578;2022-12-29T18:39:55;97954.31;;;6.92;77.08
38267;BME280;24063;51.794;19.578;2022-12-29T18:40:58;97950.13;;;6.92;77.31
38267;BME280;24063;51.794;19.578;2022-12-29T18:42:00;97959.42;;;6.91;77.23
38267;BME280;24063;51.794;19.578;2022-12-29T18:43:03;97957.66;;;6.90;77.37
38267;BME280;24063;51.794;19.578;2022-12-29T18:44:11;97957.54;;;6.88;77.30
38267;BME280;24063;51.794;19.578;2022-12-29T18:45:19;97960.02;;;6.88;77.23
38267;BME280;24063;51.794;19.578;2022-12-29T18:46:22;97958.88;;;6.87;77.37
38267;BME280;24063;51.794;19.578;2022-12-29T18:47:24;97955.07;;;6.86;77.54
38267;BME280;24063;51.794;19.578;2022-12-29T18:48:26;97958.28;;;6.85;77.61
38267;BME280;24063;51.794;19.578;2022-12-29T18:49:28;97963.34;;;6.84;77.43
38267;BME280;24063;51.794;19.578;2022-12-29T18:50:30;97963.33;;;6.83;77.45
38267;BME280;24063;51.794;19.578;2022-12-29T18:51:32;97960.17;;;6.83;77.41
38267;BME280;24063;51.794;19.578;2022-12-29T18:52:34;97959.73;;;6.82;77.30
38267;BME280;24063;51.794;19.578;2022-12-29T18:53:36;97959.46;;;6.82;77.42
38267;BME280;24063;51.794;19.578;2022-12-29T18:54:38;97962.00;;;6.83;77.28
38267;BME280;24063;51.794;19.578;2022-12-29T18:55:40;97962.36;;;6.83;77.42
38267;BME280;24063;51.794;19.578;2022-12-29T18:56:42;97961.83;;;6.83;77.32
38267;BME280;24063;51.794;19.578;2022-12-29T18:57:44;97961.77;;;6.83;77.41
38267;BME280;24063;51.794;19.578;2022-12-29T18:58:46;97959.41;;;6.83;77.44
38267;BME280;24063;51.794;19.578;2022-12-29T18:59:48;97964.25;;;6.82;77.44
38267;BME280;24063;51.794;19.578;2022-12-29T19:00:50;97961.14;;;6.82;77.50
38267;BME280;24063;51.794;19.578;2022-12-29T19:01:52;97959.35;;;6.81;77.54
38267;BME280;24063;51.794;19.578;2022-12-29T19:02:54;97963.86;;;6.80;77.52
38267;BME280;24063;51.794;19.578;2022-12-29T19:03:56;97963.27;;;6.81;77.38
38267;BME280;24063;51.794;19.578;2022-12-29T19:04:58;97960.29;;;6.82;77.39
38267;BME280;24063;51.794;19.578;2022-12-29T19:06:08;97959.36;;;6.82;77.41
38267;BME280;24063;51.794;19.578;2022-12-29T19:07:10;97959.42;;;6.82;77.46
38267;BME280;24063;51.794;19.578;2022-12-29T19:08:12;97959.95;;;6.80;77.47
38267;BME280;24063;51.794;19.578;2022-12-29T19:09:14;97960.60;;;6.80;77.51
38267;BME280;24063;51.794;19.578;2022-12-29T19:10:17;97956.13;;;6.79;77.61
38267;BME280;24063;51.794;19.578;2022-12-29T19:11:19;97958.17;;;6.79;77.48
38267;BME280;24063;51.794;19.578;2022-12-29T19:12:21;97955.21;;;6.79;77.56
38267;BME280;24063;51.794;19.578;2022-12-29T19:13:29;97950.17;;;6.79;77.64
38267;BME280;24063;51.794;19.578;2022-12-29T19:14:31;97949.47;;;6.79;77.65
38267;BME280;24063;51.794;19.578;2022-12-29T19:15:35;97954.09;;;6.79;77.40
38267;BME280;24063;51.794;19.578;2022-12-29T19:16:40;97955.92;;;6.80;77.33
38267;BME280;24063;51.794;19.578;2022-12-29T19:17:42;97955.05;;;6.81;77.46
38267;BME280;24063;51.794;19.578;2022-12-29T19:18:44;97961.34;;;6.80;77.56
38267;BME280;24063;51.794;19.578;2022-12-29T19:20:05;97957.54;;;6.80;77.57
38267;BME280;24063;51.794;19.578;2022-12-29T19:21:07;97964.45;;;6.79;77.54
38267;BME280;24063;51.794;19.578;2022-12-29T19:22:08;97966.11;;;6.79;77.42
38267;BME280;24063;51.794;19.578;2022-12-29T19:23:13;97967.66;;;6.79;77.42
38267;BME280;24063;51.794;19.578;2022-12-29T19:24:16;97964.88;;;6.80;77.37
38267;BME280;24063;51.794;19.578;2022-12-29T19:25:18;97964.79;;;6.80;77.40
38267;BME280;24063;51.794;19.578;2022-12-29T19:26:31;97965.27;;;6.80;77.53
38267;BME280;24063;51.794;19.578;2022-12-29T19:27:35;97965.30;;;6.79;77.51
38267;BME280;24063;51.794;19.578;2022-12-29T19:28:37;97965.52;;;6.79;77.60
38267;BME280;24063;51.794;19.578;2022-12-29T19:29:38;97961.77;;;6.79;77.63
38267;BME280;24063;51.794;19.578;2022-12-29T19:30:40;97961.44;;;6.80;77.70
38267;BME280;24063;51.794;19.578;2022-12-29T19:31:42;97965.54;;;6.81;77.80
38267;BME280;24063;51.794;19.578;2022-12-29T19:32:48;97972.90;;;6.84;77.34
38267;BME280;24063;51.794;19.578;2022-12-29T19:33:51;97971.99;;;6.88;77.25
38267;BME280;24063;51.794;19.578;2022-12-29T19:34:54;97974.46;;;6.90;77.32
38267;BME280;24063;51.794;19.578;2022-12-29T19:36:00;97963.46;;;6.90;77.29
38267;BME280;24063;51.794;19.578;2022-12-29T19:37:02;97969.41;;;6.92;77.08
38267;BME280;24063;51.794;19.578;2022-12-29T19:38:07;97975.48;;;6.92;77.16
38267;BME280;24063;51.794;19.578;2022-12-29T19:39:10;97970.65;;;6.92;77.08
38267;BME280;24063;51.794;19.578;2022-12-29T19:40:17;97975.21;;;6.92;77.29
38267;BME280;24063;51.794;19.578;2022-12-29T19:41:24;97972.27;;;6.91;77.33
38267;BME280;24063;51.794;19.578;2022-12-29T19:42:28;97973.55;;;6.91;77.20
38267;BME280;24063;51.794;19.578;2022-12-29T19:43:34;97973.55;;;6.91;77.26
38267;BME280;24063;51.794;19.578;2022-12-29T19:44:36;97973.49;;;6.90;77.28
38267;BME280;24063;51.794;19.578;2022-12-29T19:45:40;97974.45;;;6.90;77.30
38267;BME280;24063;51.794;19.578;2022-12-29T19:46:42;97965.60;;;6.89;77.25
38267;BME280;24063;51.794;19.578;2022-12-29T19:47:45;97966.95;;;6.90;77.12
38267;BME280;24063;51.794;19.578;2022-12-29T19:48:46;97969.26;;;6.90;77.13
38267;BME280;24063;51.794;19.578;2022-12-29T19:49:48;97971.45;;;6.90;77.04
38267;BME280;24063;51.794;19.578;2022-12-29T19:50:50;97971.41;;;6.91;76.96
38267;BME280;24063;51.794;19.578;2022-12-29T19:51:52;97970.44;;;6.91;77.09
38267;BME280;24063;51.794;19.578;2022-12-29T19:52:54;97971.46;;;6.91;77.09
38267;BME280;24063;51.794;19.578;2022-12-29T19:54:05;97971.45;;;6.91;77.10
38267;BME280;24063;51.794;19.578;2022-12-29T19:55:07;97972.53;;;6.89;77.01
38267;BME280;24063;51.794;19.578;2022-12-29T19:56:10;97966.52;;;6.89;77.06
38267;BME280;24063;51.794;19.578;2022-12-29T19:57:12;97974.25;;;6.89;77.26
38267;BME280;24063;51.794;19.578;2022-12-29T19:58:14;97973.27;;;6.88;77.41
38267;BME280;24063;51.794;19.578;2022-12-29T19:59:16;97972.21;;;6.86;77.30
38267;BME280;24063;51.794;19.578;2022-12-29T20:00:18;97975.64;;;6.86;77.35
38267;BME280;24063;51.794;19.578;2022-12-29T20:01:21;97975.33;;;6.86;77.40
38267;BME280;24063;51.794;19.578;2022-12-29T20:02:28;97975.42;;;6.86;77.36